Time;durP1;ratioP1;P1;durP2;ratioP2;P2;SDS_P1;SDS_P2;PMS_P1;PMS_P2;Temp;Humidity;BMP_temperature;BMP_pressure;BME280_temperature;BME280_humidity;BME280_pressure;Samples;Min_cycle;Max_cycle;Signal;HPM_P1;HPM_P2
2023/05/08 00:00:26;;;;;;;;;;;16.60;62.50;;;12.40;100.00;95848.66;5024378;28;19909;-46
2023/05/08 00:02:52;;;;;;;;;;;16.70;62.70;;;12.41;100.00;95839.59;5027798;28;20368;-45
2023/05/08 00:05:18;;;;;;;;;;;16.60;62.60;;;12.42;100.00;95841.19;5021996;28;19916;-45
2023/05/08 00:07:44;;;;;;;;;;;16.70;62.70;;;12.41;100.00;95834.25;5004376;28;19948;-45
2023/05/08 00:10:11;;;;;;;;;;;16.60;62.70;;;12.39;100.00;95835.59;5031715;28;19916;-46
2023/05/08 00:12:37;;;;;;;;;;;16.60;62.70;;;12.39;100.00;95835.59;5011142;28;19919;-46
2023/05/08 00:15:04;;;;;;;;;;;16.60;62.70;;;12.41;100.00;95842.25;5031652;28;19944;-46
2023/05/08 00:17:31;;;;;;;;;;;16.60;62.70;;;12.38;100.00;95839.31;5031892;28;20363;-45
2023/05/08 00:19:56;;;;;;;;;;;16.60;62.80;;;12.36;100.00;95838.78;5021315;28;19912;-46
2023/05/08 00:22:23;;;;;;;;;;;16.60;62.80;;;12.37;100.00;95841.19;5031668;28;19917;-47
2023/05/08 00:24:48;;;;;;;;;;;16.60;62.80;;;12.34;100.00;95835.56;5012210;28;19933;-47
2023/05/08 00:27:14;;;;;;;;;;;16.60;62.90;;;12.31;100.00;95834.25;5024850;28;20485;-45
2023/05/08 00:29:40;;;;;;;;;;;16.50;62.80;;;12.26;100.00;95836.94;5029758;28;20007;-48
2023/05/08 00:32:07;;;;;;;;;;;16.50;62.90;;;12.23;100.00;95843.59;5027991;28;19912;-50
2023/05/08 00:34:33;;;;;;;;;;;16.50;62.90;;;12.21;100.00;95837.72;5026116;28;19912;-50
2023/05/08 00:36:59;;;;;;;;;;;16.40;62.90;;;12.22;100.00;95836.69;5014250;28;19916;-45
2023/05/08 00:39:25;;;;;;;;;;;16.40;63.00;;;12.23;100.00;95832.94;5031386;28;20291;-46
2023/05/08 00:41:51;;;;;;;;;;;16.40;63.00;;;12.16;100.00;95828.91;5026131;28;19915;-45
2023/05/08 00:44:17;;;;;;;;;;;16.30;63.00;;;12.17;100.00;95831.31;4993670;28;19916;-46
2023/05/08 00:46:45;;;;;;;;;;;16.40;63.10;;;12.18;100.00;95834.78;5031331;28;19947;-46
2023/05/08 00:49:13;;;;;;;;;;;16.40;63.20;;;12.19;100.00;95833.72;5028616;28;20343;-46
2023/05/08 00:51:42;;;;;;;;;;;16.30;63.20;;;12.18;100.00;95827.56;5034821;28;19909;-47
2023/05/08 00:54:09;;;;;;;;;;;16.30;63.20;;;12.17;100.00;95828.66;5028848;28;19917;-46
2023/05/08 00:56:37;;;;;;;;;;;16.30;63.20;;;12.16;100.00;95831.56;5032481;28;19951;-48
2023/05/08 00:59:08;;;;;;;;;;;16.30;63.30;;;12.19;100.00;95833.72;5034989;28;20403;-46
2023/05/08 01:01:36;;;;;;;;;;;16.30;63.30;;;12.20;100.00;95833.47;5023082;28;19916;-46
2023/05/08 01:04:06;;;;;;;;;;;16.30;63.40;;;12.22;100.00;95833.19;5023855;28;20257;-45
2023/05/08 01:06:36;;;;;;;;;;;16.30;63.50;;;12.22;100.00;95836.69;5031958;28;19946;-45
2023/05/08 01:09:02;;;;;;;;;;;16.30;63.50;;;12.22;100.00;95831.34;5034827;28;20294;-48
2023/05/08 01:12:00;;;;;;;;;;;16.30;63.50;;;12.19;100.00;95837.22;5032270;28;19908;-45
2023/05/08 01:15:07;;;;;;;;;;;16.30;63.60;;;12.20;100.00;95841.47;5033061;28;19917;-46
2023/05/08 01:17:41;;;;;;;;;;;16.30;63.60;;;12.16;100.00;95837.75;5034366;28;19908;-47
2023/05/08 01:20:28;;;;;;;;;;;16.30;63.70;;;12.15;100.00;95836.13;5018666;28;19909;-47
2023/05/08 01:23:30;;;;;;;;;;;16.30;63.70;;;12.15;100.00;95832.66;5034740;28;19915;-46
2023/05/08 01:26:36;;;;;;;;;;;16.30;63.80;;;12.12;100.00;95833.97;5004088;28;20399;-46
2023/05/08 01:29:17;;;;;;;;;;;16.20;63.80;;;12.06;100.00;95836.94;5034407;28;19971;-48
2023/05/08 01:32:14;;;;;;;;;;;16.20;64.00;;;12.07;100.00;95830.53;5029160;28;20359;-45
2023/05/08 01:34:50;;;;;;;;;;;16.10;63.90;;;12.04;100.00;95831.88;5030004;28;19913;-46
2023/05/08 01:37:29;;;;;;;;;;;16.10;64.00;;;12.01;100.00;95829.75;5018540;28;20048;-45
2023/05/08 01:40:06;;;;;;;;;;;16.10;64.00;;;12.01;100.00;95827.88;5014078;28;20007;-45
2023/05/08 01:43:01;;;;;;;;;;;16.10;64.10;;;12.02;100.00;95836.66;5016733;28;19909;-46
2023/05/08 01:45:38;;;;;;;;;;;16.10;64.10;;;12.01;100.00;95835.06;4998495;28;19909;-45
2023/05/08 01:48:12;;;;;;;;;;;16.10;64.30;;;12.01;100.00;95830.53;4996068;28;19955;-46
2023/05/08 01:50:46;;;;;;;;;;;16.10;64.30;;;12.03;100.00;95832.91;5014433;28;19913;-46
2023/05/08 01:53:33;;;;;;;;;;;16.10;64.30;;;12.03;100.00;95835.59;5014086;28;19916;-45
2023/05/08 01:56:16;;;;;;;;;;;16.10;64.30;;;12.02;100.00;95840.13;5012798;28;19913;-45
2023/05/08 01:58:43;;;;;;;;;;;16.10;64.30;;;12.02;100.00;95839.34;5014016;28;20000;-45
2023/05/08 02:01:13;;;;;;;;;;;16.10;64.30;;;12.02;100.00;95829.44;5011439;28;20095;-46
2023/05/08 02:03:42;;;;;;;;;;;16.10;64.30;;;12.02;100.00;95836.66;4996527;28;19963;-45
2023/05/08 02:06:15;;;;;;;;;;;16.20;64.30;;;12.02;100.00;95836.66;4995737;28;20007;-45
2023/05/08 02:08:43;;;;;;;;;;;16.20;64.30;;;12.01;100.00;95843.09;5012491;28;19952;-45
2023/05/08 02:11:13;;;;;;;;;;;16.20;64.30;;;12.00;100.00;95847.63;5000631;28;19918;-45
2023/05/08 02:13:40;;;;;;;;;;;16.20;64.20;;;12.00;100.00;95844.97;5015434;28;19920;-45
2023/05/08 02:16:11;;;;;;;;;;;16.20;64.20;;;12.03;100.00;95844.44;4996370;28;19991;-45
2023/05/08 02:18:43;;;;;;;;;;;16.30;64.30;;;12.00;100.00;95838.78;5012453;28;19996;-45
2023/05/08 02:21:13;;;;;;;;;;;16.20;64.20;;;12.01;100.00;95843.88;5012643;28;19909;-45
2023/05/08 02:23:42;;;;;;;;;;;16.20;64.20;;;11.93;100.00;95856.94;4995216;28;19909;-47
2023/05/08 02:26:10;;;;;;;;;;;16.20;64.20;;;11.99;100.00;95851.34;5019973;28;20522;-45
2023/05/08 02:28:38;;;;;;;;;;;16.20;64.20;;;12.03;100.00;95843.59;5015743;28;20337;-45
2023/05/08 02:31:07;;;;;;;;;;;16.20;64.20;;;12.04;100.00;95848.69;5012310;28;19913;-46
2023/05/08 02:33:34;;;;;;;;;;;16.20;64.20;;;12.04;100.00;95845.22;5015422;28;19944;-47
2023/05/08 02:36:02;;;;;;;;;;;16.20;64.30;;;12.03;100.00;95843.59;5029545;28;19959;-46
2023/05/08 02:38:30;;;;;;;;;;;16.30;64.30;;;12.08;100.00;95845.47;5001121;28;19944;-45
2023/05/08 02:41:01;;;;;;;;;;;16.30;64.30;;;12.07;100.00;95849.22;5015488;28;19986;-45
2023/05/08 02:43:27;;;;;;;;;;;16.30;64.30;;;12.07;100.00;95843.88;5003544;28;20019;-46
2023/05/08 02:46:25;;;;;;;;;;;16.30;64.40;;;12.08;100.00;95842.81;5033205;28;19909;-45
2023/05/08 02:49:03;;;;;;;;;;;16.30;65.20;;;12.09;100.00;95845.19;5005119;28;19913;-46
2023/05/08 02:51:59;;;;;;;;;;;16.30;64.40;;;12.10;100.00;95849.50;5015629;28;20387;-46
2023/05/08 02:54:54;;;;;;;;;;;16.30;64.40;;;12.13;100.00;95851.63;5009055;28;20303;-45
2023/05/08 02:57:46;;;;;;;;;;;16.30;64.40;;;12.13;100.00;95842.81;5032412;28;20007;-45
2023/05/08 03:00:22;;;;;;;;;;;16.40;64.50;;;12.14;100.00;95847.88;4986911;28;19932;-48
2023/05/08 03:03:16;;;;;;;;;;;16.40;64.50;;;12.14;100.00;95845.22;5011326;28;19932;-45
2023/05/08 03:05:51;;;;;;;;;;;16.40;64.50;;;12.17;100.00;95843.88;5014431;28;19917;-47
2023/05/08 03:08:25;;;;;;;;;;;16.40;64.40;;;12.18;100.00;95845.47;5016435;28;19909;-46
2023/05/08 03:10:58;;;;;;;;;;;16.40;64.40;;;12.17;100.00;95839.34;5010489;28;19909;-47
2023/05/08 03:13:33;;;;;;;;;;;16.40;64.50;;;12.17;100.00;95839.34;5021135;28;19909;-46
2023/05/08 03:16:03;;;;;;;;;;;16.40;64.50;;;12.16;100.00;95832.41;5015375;28;19970;-46
2023/05/08 03:18:46;;;;;;;;;;;16.40;64.50;;;12.19;100.00;95844.41;5007472;28;19909;-47
2023/05/08 03:21:17;;;;;;;;;;;16.40;64.50;;;12.20;100.00;95835.34;5007690;28;19908;-46
2023/05/08 03:23:46;;;;;;;;;;;16.40;64.60;;;12.21;100.00;95842.25;5031880;28;19908;-47
2023/05/08 03:26:21;;;;;;;;;;;16.40;64.60;;;12.23;100.00;95842.81;5014380;28;19917;-48
2023/05/08 03:28:52;;;;;;;;;;;16.50;64.70;;;12.21;100.00;95839.59;5032315;28;20287;-47
2023/05/08 03:31:21;;;;;;;;;;;16.50;64.70;;;12.22;100.00;95843.84;5011543;28;19909;-46
2023/05/08 03:33:50;;;;;;;;;;;16.40;64.70;;;12.20;100.00;95848.69;5032031;28;19916;-47
2023/05/08 03:36:18;;;;;;;;;;;16.50;64.70;;;12.22;100.00;95847.34;5009406;28;20024;-47
2023/05/08 03:38:44;;;;;;;;;;;16.40;64.70;;;12.17;100.00;95855.34;5002620;28;19959;-46
2023/05/08 03:41:11;;;;;;;;;;;16.40;64.70;;;12.21;100.00;95847.59;5031987;28;19912;-47
2023/05/08 03:43:37;;;;;;;;;;;16.40;64.70;;;12.22;100.00;95847.34;5002879;28;20406;-46
2023/05/08 03:46:07;;;;;;;;;;;16.40;64.70;;;12.23;100.00;95848.16;5014563;28;19909;-46
2023/05/08 03:48:34;;;;;;;;;;;16.40;64.70;;;12.25;100.00;95854.00;5029206;28;19962;-46
2023/05/08 03:51:04;;;;;;;;;;;16.50;64.70;;;12.23;100.00;95856.16;5031858;28;19908;-47
2023/05/08 03:53:32;;;;;;;;;;;16.50;64.70;;;12.25;100.00;95854.00;5031635;28;20007;-46
2023/05/08 03:56:00;;;;;;;;;;;16.50;64.70;;;12.24;100.00;95852.41;5024587;28;19909;-46
2023/05/08 03:58:43;;;;;;;;;;;16.50;64.70;;;12.25;100.00;95856.69;5014219;28;20434;-47
2023/05/08 04:01:27;;;;;;;;;;;16.50;64.70;;;12.24;100.00;95855.88;5020555;28;20359;-48
2023/05/08 04:04:10;;;;;;;;;;;16.50;64.80;;;12.22;100.00;95858.03;5031434;28;20288;-46
2023/05/08 04:07:18;;;;;;;;;;;16.50;64.70;;;12.21;100.00;95860.97;5012567;28;19909;-46
2023/05/08 04:10:07;;;;;;;;;;;16.50;64.80;;;12.22;100.00;95862.56;5014582;28;19948;-46
2023/05/08 04:12:46;;;;;;;;;;;16.50;64.70;;;12.24;100.00;95863.09;5008896;28;19963;-47
2023/05/08 04:15:27;;;;;;;;;;;16.50;64.80;;;12.26;100.00;95872.44;5031755;28;20011;-47
2023/05/08 04:18:03;;;;;;;;;;;16.50;64.90;;;12.25;100.00;95870.03;5011328;28;20444;-47
2023/05/08 04:20:32;;;;;;;;;;;16.50;64.80;;;12.23;100.00;95869.50;5026605;28;19913;-48
2023/05/08 04:22:58;;;;;;;;;;;16.50;64.80;;;12.22;100.00;95868.72;5014090;28;19936;-46
2023/05/08 04:25:25;;;;;;;;;;;16.50;64.70;;;12.25;100.00;95875.38;5021426;28;19913;-47
2023/05/08 04:27:53;;;;;;;;;;;16.50;64.70;;;12.24;100.00;95879.91;5018150;28;20430;-46
2023/05/08 04:30:19;;;;;;;;;;;16.50;64.80;;;12.25;100.00;95875.38;5013994;28;19941;-47
2023/05/08 04:32:46;;;;;;;;;;;16.50;64.80;;;12.25;100.00;95878.03;5035420;28;19913;-47
2023/05/08 04:35:13;;;;;;;;;;;16.50;64.80;;;12.23;100.00;95880.19;5017586;28;19959;-46
2023/05/08 04:37:44;;;;;;;;;;;16.50;64.80;;;12.15;100.00;95884.19;5021661;28;26799;-47
2023/05/08 04:40:10;;;;;;;;;;;16.50;64.70;;;12.19;100.00;95887.13;5032291;28;20267;-47
2023/05/08 04:42:38;;;;;;;;;;;16.50;64.80;;;12.09;100.00;95879.91;5027328;28;19913;-46
2023/05/08 04:45:05;;;;;;;;;;;16.60;64.80;;;12.14;100.00;95879.13;5032205;28;19934;-46
2023/05/08 04:47:31;;;;;;;;;;;16.50;64.70;;;12.17;100.00;95883.94;5034963;28;19913;-46
2023/05/08 04:49:57;;;;;;;;;;;16.50;64.70;;;12.19;100.00;95879.94;5032174;28;19932;-46
2023/05/08 04:52:22;;;;;;;;;;;16.60;64.70;;;12.17;100.00;95873.25;5035093;28;19913;-46
2023/05/08 04:54:48;;;;;;;;;;;16.60;64.70;;;12.19;100.00;95873.78;5025252;28;20347;-46
2023/05/08 04:57:14;;;;;;;;;;;16.60;64.70;;;12.13;100.00;95874.88;5035280;28;19916;-46
2023/05/08 04:59:39;;;;;;;;;;;16.60;64.60;;;12.13;100.00;95877.53;5034838;28;19916;-46
2023/05/08 05:02:07;;;;;;;;;;;16.60;64.60;;;12.18;100.00;95875.66;5025428;28;19912;-45
2023/05/08 05:04:34;;;;;;;;;;;16.60;64.50;;;12.24;100.00;95873.78;5034739;28;20260;-47
2023/05/08 05:07:00;;;;;;;;;;;16.60;64.60;;;12.28;100.00;95874.84;5023576;28;19913;-47
2023/05/08 05:09:26;;;;;;;;;;;16.70;64.70;;;12.25;100.00;95875.38;5030822;28;19913;-51
2023/05/08 05:11:52;;;;;;;;;;;16.70;64.70;;;12.27;100.00;95873.25;5030509;28;19974;-49
2023/05/08 05:14:18;;;;;;;;;;;16.70;64.70;;;12.27;100.00;95879.38;5031468;28;19920;-47
2023/05/08 05:16:43;;;;;;;;;;;16.80;64.70;;;12.26;100.00;95880.47;5034462;28;19940;-47
2023/05/08 05:19:09;;;;;;;;;;;16.70;64.60;;;12.32;100.00;95888.47;5025602;28;19915;-50
2023/05/08 05:21:36;;;;;;;;;;;16.80;64.60;;;12.34;100.00;95884.44;5034708;28;19908;-46
2023/05/08 05:24:04;;;;;;;;;;;16.80;64.60;;;12.36;100.00;95890.34;5031567;28;19916;-49
2023/05/08 05:26:29;;;;;;;;;;;16.80;64.60;;;12.39;100.00;95891.69;5025307;28;19991;-48
2023/05/08 05:28:55;;;;;;;;;;;16.80;64.70;;;12.39;100.00;95894.34;5029700;28;20020;-47
2023/05/08 05:31:21;;;;;;;;;;;16.90;64.70;;;12.40;100.00;95893.28;5010826;28;20429;-48
2023/05/08 05:33:47;;;;;;;;;;;16.90;64.60;;;12.37;100.00;95891.94;5026930;28;20217;-49
2023/05/08 05:36:12;;;;;;;;;;;16.90;64.50;;;12.45;100.00;95891.41;5015046;28;19992;-47
2023/05/08 05:38:38;;;;;;;;;;;16.90;64.40;;;12.46;100.00;95893.00;5013854;28;19915;-47
2023/05/08 05:41:04;;;;;;;;;;;17.00;64.50;;;12.54;100.00;95898.88;5034098;28;19946;-46
2023/05/08 05:43:30;;;;;;;;;;;17.00;64.40;;;12.58;100.00;95898.06;5018059;28;19908;-48
2023/05/08 05:46:02;;;;;;;;;;;17.10;64.50;;;12.62;100.00;95899.13;5022294;28;19908;-48
2023/05/08 05:48:28;;;;;;;;;;;17.10;64.40;;;12.66;100.00;95897.53;5007035;28;19908;-51
2023/05/08 05:50:54;;;;;;;;;;;17.20;64.40;;;12.65;100.00;95895.13;5034153;28;19916;-46
2023/05/08 05:53:19;;;;;;;;;;;17.30;64.30;;;12.66;100.00;95904.72;5027228;28;20051;-47
2023/05/08 05:55:45;;;;;;;;;;;17.30;64.20;;;12.73;100.00;95908.75;5023717;28;19917;-49
2023/05/08 05:58:11;;;;;;;;;;;17.40;64.20;;;12.62;100.00;95896.44;5033491;28;19909;-47
2023/05/08 06:00:36;;;;;;;;;;;17.40;64.90;;;12.69;100.00;95904.19;5019994;28;20055;-47
2023/05/08 06:03:03;;;;;;;;;;;17.40;64.10;;;12.74;100.00;95904.19;5015141;28;19963;-46
2023/05/08 06:05:29;;;;;;;;;;;17.40;64.00;;;12.78;100.00;95905.25;5033336;28;20348;-47
2023/05/08 06:07:54;;;;;;;;;;;17.50;64.00;;;12.86;100.00;95903.91;5027513;28;19913;-46
2023/05/08 06:10:20;;;;;;;;;;;17.50;64.00;;;12.87;100.00;95900.16;5026997;28;19944;-46
2023/05/08 06:12:46;;;;;;;;;;;17.50;63.90;;;12.85;100.00;95897.78;5016917;28;19913;-46
2023/05/08 06:15:13;;;;;;;;;;;17.60;63.90;;;12.83;100.00;95909.78;5031101;28;20286;-47
2023/05/08 06:17:40;;;;;;;;;;;17.60;63.80;;;12.84;100.00;95906.03;5026305;28;19909;-46
2023/05/08 06:20:07;;;;;;;;;;;17.70;63.70;;;12.91;100.00;95912.72;5022574;28;20352;-47
2023/05/08 06:22:33;;;;;;;;;;;17.70;63.60;;;13.03;100.00;95907.06;5033397;28;19909;-50
2023/05/08 06:24:59;;;;;;;;;;;17.70;63.60;;;13.13;100.00;95915.06;5021702;28;19909;-46
2023/05/08 06:27:25;;;;;;;;;;;17.90;63.80;;;13.15;100.00;95915.59;5031725;28;19909;-46
2023/05/08 06:29:52;;;;;;;;;;;17.90;63.70;;;13.17;100.00;95916.13;5030825;28;20435;-46
2023/05/08 06:32:21;;;;;;;;;;;18.00;63.50;;;13.19;100.00;95914.00;5031972;28;19944;-46
2023/05/08 06:34:47;;;;;;;;;;;18.00;63.50;;;13.29;100.00;95912.38;5033195;28;19916;-47
2023/05/08 06:37:13;;;;;;;;;;;18.00;63.40;;;13.28;100.00;95910.75;5022666;28;19908;-46
2023/05/08 06:39:39;;;;;;;;;;;18.10;63.40;;;13.26;100.00;95910.25;5025295;28;19915;-47
2023/05/08 06:42:05;;;;;;;;;;;18.10;63.30;;;13.37;100.00;95914.47;5028428;28;19913;-48
2023/05/08 06:44:32;;;;;;;;;;;18.20;63.30;;;13.37;100.00;95904.56;5025273;28;19916;-46
2023/05/08 06:46:58;;;;;;;;;;;18.20;63.10;;;13.45;100.00;95905.88;5032224;28;19999;-46
2023/05/08 06:49:24;;;;;;;;;;;18.20;63.90;;;13.51;100.00;95914.69;5029881;28;20027;-46
2023/05/08 06:51:49;;;;;;;;;;;18.30;63.20;;;13.56;100.00;95915.44;5028228;28;19917;-46
2023/05/08 06:54:16;;;;;;;;;;;18.40;63.10;;;13.63;100.00;95917.81;5020127;28;19921;-47
2023/05/08 06:56:41;;;;;;;;;;;18.40;63.10;;;13.63;100.00;95915.97;5031307;28;19909;-46
2023/05/08 06:59:07;;;;;;;;;;;18.40;63.00;;;13.70;100.00;95915.66;5033130;28;20386;-46
2023/05/08 07:01:33;;;;;;;;;;;18.50;63.00;;;13.77;100.00;95910.00;5023321;28;20278;-46
2023/05/08 07:04:00;;;;;;;;;;;18.50;62.90;;;13.79;100.00;95916.69;5032645;28;19917;-47
2023/05/08 07:06:26;;;;;;;;;;;18.60;62.80;;;13.80;100.00;95909.47;4993179;28;19917;-48
2023/05/08 07:08:52;;;;;;;;;;;18.60;62.70;;;13.85;100.00;95912.09;5024785;28;19935;-46
2023/05/08 07:11:18;;;;;;;;;;;18.70;62.70;;;13.91;100.00;95915.53;5029748;28;20325;-46
2023/05/08 07:13:46;;;;;;;;;;;18.80;62.70;;;13.95;100.00;95920.09;5027305;28;20318;-46
2023/05/08 07:16:14;;;;;;;;;;;18.80;62.60;;;14.02;100.00;95925.91;5032527;28;20318;-51
2023/05/08 07:18:40;;;;;;;;;;;18.80;62.50;;;14.04;100.00;95923.78;5024155;28;20021;-46
2023/05/08 07:21:06;;;;;;;;;;;18.90;62.50;;;14.04;100.00;95921.09;5032098;28;20435;-47
2023/05/08 07:23:31;;;;;;;;;;;18.90;62.40;;;14.06;100.00;95918.91;5032121;28;19948;-50
2023/05/08 07:25:57;;;;;;;;;;;19.00;62.20;;;14.11;100.00;95921.56;5008217;28;19912;-46
2023/05/08 07:28:24;;;;;;;;;;;19.00;62.10;;;14.12;100.00;95928.53;5032414;28;19909;-46
2023/05/08 07:30:50;;;;;;;;;;;19.00;62.00;;;14.13;100.00;95926.63;5028160;28;19909;-46
2023/05/08 07:33:16;;;;;;;;;;;19.10;62.80;;;14.11;100.00;95929.63;5032356;28;19992;-46
2023/05/08 07:35:42;;;;;;;;;;;19.20;61.90;;;14.18;100.00;95923.16;5032145;28;19966;-48
2023/05/08 07:38:08;;;;;;;;;;;19.20;61.80;;;14.25;99.60;95923.63;5008202;28;20331;-46
2023/05/08 07:40:34;;;;;;;;;;;19.20;61.80;;;14.24;98.25;95927.38;5031109;28;19958;-46
2023/05/08 07:43:00;;;;;;;;;;;19.20;61.70;;;14.19;98.49;95922.06;5020856;28;19909;-46
2023/05/08 07:45:26;;;;;;;;;;;19.20;61.50;;;14.22;98.43;95927.66;5031279;28;19958;-46
2023/05/08 07:47:56;;;;;;;;;;;19.30;61.50;;;14.22;98.91;95935.69;5031769;28;19909;-48
2023/05/08 07:50:24;;;;;;;;;;;19.40;61.30;;;14.30;98.58;95931.63;5030873;28;19916;-46
2023/05/08 07:52:51;;;;;;;;;;;19.40;61.10;;;14.39;98.90;95931.84;5014111;28;19909;-47
2023/05/08 07:55:18;;;;;;;;;;;19.50;61.00;;;14.47;99.36;95933.91;5010335;28;20375;-46
2023/05/08 07:57:45;;;;;;;;;;;19.60;61.00;;;14.50;97.54;95930.66;5032160;28;19958;-46
2023/05/08 08:00:14;;;;;;;;;;;19.70;60.80;;;14.50;96.13;95930.66;5031306;28;19935;-45
2023/05/08 08:02:42;;;;;;;;;;;19.90;60.70;;;14.68;97.42;95927.31;5029934;28;19954;-46
2023/05/08 08:05:08;;;;;;;;;;;20.10;60.50;;;14.82;95.07;95932.81;5035528;28;19924;-46
2023/05/08 08:07:34;;;;;;;;;;;20.30;60.20;;;15.01;94.73;95925.69;5029684;28;19913;-46
2023/05/08 08:10:03;;;;;;;;;;;20.60;59.90;;;15.16;92.50;95921.22;5035788;28;19908;-46
2023/05/08 08:12:29;;;;;;;;;;;20.90;59.70;;;15.39;90.34;95925.00;5028276;28;19909;-47
2023/05/08 08:14:55;;;;;;;;;;;21.20;59.40;;;15.59;87.96;95926.63;5035752;28;19955;-46
2023/05/08 08:17:21;;;;;;;;;;;21.50;59.00;;;15.87;89.38;95922.28;5035644;28;19944;-52
2023/05/08 08:19:47;;;;;;;;;;;21.80;58.70;;;16.09;85.68;95925.19;5026766;28;20386;-46
2023/05/08 08:22:13;;;;;;;;;;;22.20;58.40;;;16.42;86.67;95919.84;5035794;28;20278;-47
2023/05/08 08:24:39;;;;;;;;;;;22.60;58.20;;;16.69;83.21;95926.41;5027028;28;19916;-46
2023/05/08 08:27:05;;;;;;;;;;;23.00;57.90;;;17.10;83.57;95921.13;5021979;28;19912;-46
2023/05/08 08:29:31;;;;;;;;;;;23.40;58.20;;;17.33;81.55;95924.75;5035667;28;19987;-46
2023/05/08 08:31:56;;;;;;;;;;;23.70;57.30;;;17.50;80.64;95927.63;5032714;28;19908;-48
2023/05/08 08:34:22;;;;;;;;;;;24.00;56.80;;;17.57;78.32;95925.31;5035174;28;19913;-46
2023/05/08 08:36:48;;;;;;;;;;;24.30;56.50;;;17.64;76.09;95922.22;5028648;28;19949;-47
2023/05/08 08:39:14;;;;;;;;;;;24.50;56.10;;;17.80;76.33;95920.84;5025559;28;20287;-49
2023/05/08 08:41:40;;;;;;;;;;;24.80;55.80;;;18.08;77.09;95928.06;5035305;28;19916;-48
2023/05/08 08:44:06;;;;;;;;;;;25.00;55.60;;;18.30;73.91;95924.59;5023932;28;20379;-48
2023/05/08 08:46:32;;;;;;;;;;;25.20;55.30;;;18.27;74.54;95921.44;5035342;28;19909;-49
2023/05/08 08:49:01;;;;;;;;;;;25.40;55.00;;;18.27;74.89;95929.50;5032931;28;19961;-47
2023/05/08 08:51:34;;;;;;;;;;;25.40;54.80;;;18.17;72.99;95926.25;5017769;28;20009;-46
2023/05/08 08:54:08;;;;;;;;;;;25.40;54.50;;;18.42;73.01;95922.16;5014332;28;19913;-49
2023/05/08 08:56:39;;;;;;;;;;;25.50;54.40;;;18.45;73.37;95919.63;5031729;28;19951;-50
2023/05/08 08:59:07;;;;;;;;;;;25.50;54.30;;;18.73;74.13;95924.94;5017460;28;19908;-51
2023/05/08 09:01:37;;;;;;;;;;;25.50;54.20;;;18.73;73.33;95920.34;5025886;28;19909;-49
2023/05/08 09:04:07;;;;;;;;;;;25.60;54.00;;;18.85;73.25;95925.19;5034721;28;19912;-51
2023/05/08 09:06:37;;;;;;;;;;;25.70;53.80;;;18.91;71.54;95923.16;5028169;28;19920;-48
2023/05/08 09:09:04;;;;;;;;;;;25.80;53.70;;;18.89;69.57;95917.25;5029390;28;19915;-49
2023/05/08 09:11:30;;;;;;;;;;;25.90;53.40;;;19.10;72.90;95917.53;5031944;28;19908;-49
2023/05/08 09:13:57;;;;;;;;;;;25.90;53.20;;;19.21;72.37;95912.63;5028171;28;19916;-50
2023/05/08 09:16:26;;;;;;;;;;;26.00;53.20;;;19.13;71.40;95908.81;5034602;28;19919;-48
2023/05/08 09:18:52;;;;;;;;;;;26.00;52.90;;;19.30;71.19;95908.06;5020420;28;19916;-47
2023/05/08 09:21:21;;;;;;;;;;;26.20;52.70;;;19.54;68.48;95908.47;5034664;28;19909;-49
2023/05/08 09:24:00;;;;;;;;;;;26.30;52.60;;;19.58;73.18;95919.44;5016941;28;19908;-48
2023/05/08 09:26:34;;;;;;;;;;;26.40;52.50;;;19.62;69.42;95917.72;5013889;28;20388;-53
2023/05/08 09:29:26;;;;;;;;;;;26.60;52.20;;;19.63;68.76;95919.31;5007469;28;19909;-50
2023/05/08 09:31:52;;;;;;;;;;;26.70;51.90;;;19.68;69.94;95918.38;5006902;28;19958;-49
2023/05/08 09:34:36;;;;;;;;;;;26.80;51.60;;;19.96;69.86;95922.44;5013072;28;20007;-49
2023/05/08 09:37:04;;;;;;;;;;;26.90;51.50;;;20.08;68.95;95914.47;5012482;28;19909;-47
2023/05/08 09:39:30;;;;;;;;;;;27.00;51.40;;;20.06;69.01;95913.22;5014555;28;19928;-47
2023/05/08 09:41:58;;;;;;;;;;;27.20;51.30;;;20.06;67.92;95916.72;5027730;28;21528;-47
2023/05/08 09:44:24;;;;;;;;;;;27.30;51.20;;;19.76;67.21;95915.72;5008326;28;19932;-48
2023/05/08 09:46:49;;;;;;;;;;;27.30;50.80;;;19.90;70.61;95918.31;5013752;28;19909;-49
2023/05/08 09:49:18;;;;;;;;;;;27.30;50.70;;;20.11;69.32;95919.25;5012204;28;19912;-49
2023/05/08 09:51:52;;;;;;;;;;;27.30;50.60;;;20.46;66.49;95930.06;5014016;28;19938;-51
2023/05/08 09:54:19;;;;;;;;;;;27.60;50.60;;;20.51;66.51;95926.44;5012666;28;20443;-48
2023/05/08 09:56:45;;;;;;;;;;;27.90;50.40;;;20.81;65.01;95927.38;4995142;28;20007;-47
2023/05/08 09:59:28;;;;;;;;;;;28.10;50.30;;;20.97;64.72;95925.75;5004584;28;20017;-47
2023/05/08 10:01:57;;;;;;;;;;;28.20;50.00;;;21.03;61.31;95931.78;5009464;28;19935;-47
2023/05/08 10:04:33;;;;;;;;;;;28.20;50.00;;;20.82;60.91;95925.47;5012998;28;19970;-47
2023/05/08 10:07:00;;;;;;;;;;;28.00;50.40;;;20.82;61.61;95926.25;5012310;28;19909;-48
2023/05/08 10:09:26;;;;;;;;;;;27.70;49.60;;;20.80;63.86;95923.84;4994124;28;19958;-47
2023/05/08 10:11:54;;;;;;;;;;;27.60;49.60;;;20.72;61.93;95921.97;5022733;28;19912;-52
2023/05/08 10:14:22;;;;;;;;;;;27.50;49.60;;;20.85;63.56;95932.94;5006280;28;19921;-48
2023/05/08 10:16:51;;;;;;;;;;;27.40;49.50;;;20.67;63.24;95922.13;5011502;28;19921;-51
2023/05/08 10:19:23;;;;;;;;;;;27.30;49.60;;;20.68;63.49;95931.88;4976616;28;19917;-48
2023/05/08 10:21:54;;;;;;;;;;;27.00;49.60;;;20.58;66.35;95926.75;5006068;28;19920;-49
2023/05/08 10:24:43;;;;;;;;;;;26.80;49.80;;;20.31;66.48;95917.84;5009058;28;20287;-47
2023/05/08 10:27:51;;;;;;;;;;;26.70;49.80;;;19.81;68.83;95912.88;5012739;28;20402;-49
2023/05/08 10:30:22;;;;;;;;;;;26.60;49.80;;;19.80;67.23;95907.75;4980517;28;20019;-48
2023/05/08 10:32:55;;;;;;;;;;;26.50;49.50;;;19.81;67.41;95904.75;4996456;28;19908;-47
2023/05/08 10:35:22;;;;;;;;;;;26.50;50.00;;;20.00;66.89;95900.97;5012857;28;19913;-47
2023/05/08 10:37:48;;;;;;;;;;;26.60;49.40;;;20.10;66.38;95908.78;5012175;28;20283;-50
2023/05/08 10:40:15;;;;;;;;;;;26.60;49.40;;;20.11;68.17;95907.66;5013188;28;19943;-47
2023/05/08 10:42:42;;;;;;;;;;;26.60;49.40;;;20.05;66.67;95903.50;5011832;28;19909;-47
2023/05/08 10:45:09;;;;;;;;;;;26.60;49.40;;;20.18;67.37;95899.06;4995803;28;19913;-48
2023/05/08 10:47:56;;;;;;;;;;;26.60;49.40;;;20.34;65.71;95903.69;4995824;28;20279;-48
2023/05/08 10:50:37;;;;;;;;;;;26.60;49.50;;;20.32;65.27;95895.09;5001055;28;19916;-48
2023/05/08 10:53:27;;;;;;;;;;;26.70;49.30;;;20.52;68.63;95890.94;5013062;28;19909;-47
2023/05/08 10:55:55;;;;;;;;;;;26.90;49.10;;;20.39;66.45;95894.59;5011619;28;20280;-50
2023/05/08 10:58:34;;;;;;;;;;;27.10;49.20;;;20.49;65.64;95893.47;5007728;28;19952;-48
2023/05/08 11:01:04;;;;;;;;;;;27.30;49.20;;;20.50;65.26;95886.97;5010383;28;20379;-50
2023/05/08 11:03:36;;;;;;;;;;;27.40;49.00;;;20.61;62.88;95885.53;5012740;28;20383;-49
2023/05/08 11:06:02;;;;;;;;;;;27.50;48.90;;;20.70;62.81;95888.22;5012707;28;19916;-47
2023/05/08 11:08:31;;;;;;;;;;;27.60;48.70;;;20.90;66.42;95894.84;4993162;28;19909;-49
2023/05/08 11:13:45;;;;;;;;;;;27.90;48.50;;;21.08;64.00;95890.97;5011691;28;19934;-49
2023/05/08 11:16:11;;;;;;;;;;;27.90;48.40;;;21.26;64.01;95892.50;5011334;28;19974;-50
2023/05/08 11:18:57;;;;;;;;;;;28.10;48.40;;;21.53;64.08;95882.38;5011523;28;19948;-48
2023/05/08 11:21:23;;;;;;;;;;;28.20;48.40;;;21.75;59.56;95885.91;4996988;28;19916;-52
2023/05/08 11:23:59;;;;;;;;;;;28.80;48.00;;;21.74;60.13;95878.91;5011054;28;19909;-47
2023/05/08 11:26:41;;;;;;;;;;;29.00;47.80;;;21.69;59.34;95877.97;5003182;28;19913;-49
2023/05/08 11:29:16;;;;;;;;;;;28.90;47.70;;;21.56;61.82;95870.06;5012285;28;19912;-47